Sudbury, Canada
Current Conditions -  °F | °C
As of 1:00 AM on Sunday 21 Dec 2014 (Local Time) from CYSB Reporting Station
Overcast Overcast  
Wind Chill: 18°   Ceiling: 6200
Heat Index: 18°   Visibility: 15mi
Dew Point: 16°   Wind: 3mph
Humidity: 93%   Direction: 60°ENE
Pressure: 30.22"   Gusts: NA
Location:  46.49°N, 80.99°W
Report Text: CYSB 210600Z 06003KT 15SM BKN062 OVC078 M08/M09 A3022 RMK SC5AC3 SLP259
Loading
Personal Weather Stations






























Interactive Weather Map New forecast layout! Learn more

10-Day Weather Forecast

Advertisements
Track Severe Weather on mobile